sensor_id;sensor_type;location;lat;lon;timestamp;pressure;altitude;pressure_sealevel;temperature;humidity
21902;BME280;11115;46.038;14.612;2023-04-15T00:02:23;97285.00;;;6.79;100.00
21902;BME280;11115;46.038;14.612;2023-04-15T00:04:55;97289.88;;;6.82;100.00
21902;BME280;11115;46.038;14.612;2023-04-15T00:07:45;97271.03;;;6.67;100.00
21902;BME280;11115;46.038;14.612;2023-04-15T00:10:18;97282.50;;;6.69;100.00
21902;BME280;11115;46.038;14.612;2023-04-15T00:12:50;97279.75;;;6.69;100.00
21902;BME280;11115;46.038;14.612;2023-04-15T00:15:29;97278.00;;;6.73;100.00
21902;BME280;11115;46.038;14.612;2023-04-15T00:18:01;97281.38;;;6.70;100.00
21902;BME280;11115;46.038;14.612;2023-04-15T00:20:31;97284.25;;;6.65;100.00
21902;BME280;11115;46.038;14.612;2023-04-15T00:23:13;97282.19;;;6.70;100.00
21902;BME280;11115;46.038;14.612;2023-04-15T00:25:46;97284.31;;;6.74;100.00
21902;BME280;11115;46.038;14.612;2023-04-15T00:28:18;97279.13;;;6.72;100.00
21902;BME280;11115;46.038;14.612;2023-04-15T00:30:49;97279.09;;;6.63;100.00
21902;BME280;11115;46.038;14.612;2023-04-15T00:33:20;97284.75;;;6.67;100.00
21902;BME280;11115;46.038;14.612;2023-04-15T00:35:49;97288.31;;;6.67;100.00
21902;BME280;11115;46.038;14.612;2023-04-15T00:38:22;97286.19;;;6.64;100.00
21902;BME280;11115;46.038;14.612;2023-04-15T00:40:55;97274.09;;;6.65;100.00
21902;BME280;11115;46.038;14.612;2023-04-15T00:43:37;97285.13;;;6.74;100.00
21902;BME280;11115;46.038;14.612;2023-04-15T00:46:06;97285.66;;;6.76;100.00
21902;BME280;11115;46.038;14.612;2023-04-15T00:48:37;97284.63;;;6.72;100.00
21902;BME280;11115;46.038;14.612;2023-04-15T00:51:05;97285.88;;;6.66;100.00
21902;BME280;11115;46.038;14.612;2023-04-15T00:53:37;97283.72;;;6.77;100.00
21902;BME280;11115;46.038;14.612;2023-04-15T00:56:07;97277.50;;;6.71;100.00
21902;BME280;11115;46.038;14.612;2023-04-15T00:58:50;97224.38;;;6.31;100.00
21902;BME280;11115;46.038;14.612;2023-04-15T01:01:20;97283.94;;;6.66;100.00
21902;BME280;11115;46.038;14.612;2023-04-15T01:03:49;97285.06;;;6.65;100.00
21902;BME280;11115;46.038;14.612;2023-04-15T01:06:19;97282.28;;;6.57;100.00
21902;BME280;11115;46.038;14.612;2023-04-15T01:08:53;97275.72;;;6.66;100.00
21902;BME280;11115;46.038;14.612;2023-04-15T01:11:26;97279.56;;;6.65;100.00
21902;BME280;11115;46.038;14.612;2023-04-15T01:14:10;97278.94;;;6.68;100.00
21902;BME280;11115;46.038;14.612;2023-04-15T01:16:48;97251.53;;;6.55;100.00
21902;BME280;11115;46.038;14.612;2023-04-15T01:19:18;97277.78;;;6.61;100.00
21902;BME280;11115;46.038;14.612;2023-04-15T01:21:49;97280.69;;;6.64;100.00
21902;BME280;11115;46.038;14.612;2023-04-15T01:24:19;97274.31;;;6.55;100.00
21902;BME280;11115;46.038;14.612;2023-04-15T01:26:48;97274.03;;;6.57;100.00
21902;BME280;11115;46.038;14.612;2023-04-15T01:29:22;97282.47;;;6.60;100.00
21902;BME280;11115;46.038;14.612;2023-04-15T01:31:56;97280.53;;;6.61;100.00
21902;BME280;11115;46.038;14.612;2023-04-15T01:34:39;97272.47;;;6.64;100.00
21902;BME280;11115;46.038;14.612;2023-04-15T01:37:09;97274.09;;;6.65;100.00
21902;BME280;11115;46.038;14.612;2023-04-15T01:39:37;97270.03;;;6.63;100.00
21902;BME280;11115;46.038;14.612;2023-04-15T01:42:14;97277.47;;;6.62;100.00
21902;BME280;11115;46.038;14.612;2023-04-15T01:44:58;97255.53;;;6.49;100.00
21902;BME280;11115;46.038;14.612;2023-04-15T01:47:43;97271.47;;;6.60;100.00
21902;BME280;11115;46.038;14.612;2023-04-15T01:50:15;97265.53;;;6.67;100.00
21902;BME280;11115;46.038;14.612;2023-04-15T01:52:47;97276.50;;;6.67;100.00
21902;BME280;11115;46.038;14.612;2023-04-15T01:55:19;97270.84;;;6.63;100.00
21902;BME280;11115;46.038;14.612;2023-04-15T01:57:53;97273.28;;;6.65;100.00
21902;BME280;11115;46.038;14.612;2023-04-15T02:00:36;97271.97;;;6.62;100.00
21902;BME280;11115;46.038;14.612;2023-04-15T02:03:12;97284.56;;;6.63;100.00
21902;BME280;11115;46.038;14.612;2023-04-15T02:05:44;97269.44;;;6.52;100.00
21902;BME280;11115;46.038;14.612;2023-04-15T02:08:15;97282.38;;;6.52;100.00
21902;BME280;11115;46.038;14.612;2023-04-15T02:10:49;97282.56;;;6.55;100.00
21902;BME280;11115;46.038;14.612;2023-04-15T02:13:21;97289.09;;;6.59;100.00
21902;BME280;11115;46.038;14.612;2023-04-15T02:15:50;97279.31;;;6.53;100.00
21902;BME280;11115;46.038;14.612;2023-04-15T02:18:22;97285.56;;;6.67;100.00
21902;BME280;11115;46.038;14.612;2023-04-15T02:20:52;97277.63;;;6.66;100.00
21902;BME280;11115;46.038;14.612;2023-04-15T02:23:27;97284.44;;;6.68;100.00
21902;BME280;11115;46.038;14.612;2023-04-15T02:26:06;97288.94;;;6.64;100.00
21902;BME280;11115;46.038;14.612;2023-04-15T02:28:40;97281.03;;;6.63;100.00
21902;BME280;11115;46.038;14.612;2023-04-15T02:31:08;97286.69;;;6.66;100.00
21902;BME280;11115;46.038;14.612;2023-04-15T02:33:41;97273.81;;;6.53;100.00
21902;BME280;11115;46.038;14.612;2023-04-15T02:36:09;97284.50;;;6.55;100.00
21902;BME280;11115;46.038;14.612;2023-04-15T02:38:43;97284.22;;;6.56;100.00
21902;BME280;11115;46.038;14.612;2023-04-15T02:41:15;97285.69;;;6.62;100.00
21902;BME280;11115;46.038;14.612;2023-04-15T02:43:59;97276.69;;;6.70;100.00
21902;BME280;11115;46.038;14.612;2023-04-15T02:46:38;97284.63;;;6.72;100.00
21902;BME280;11115;46.038;14.612;2023-04-15T02:49:10;97283.72;;;6.77;100.00
21902;BME280;11115;46.038;14.612;2023-04-15T02:51:53;97275.84;;;6.61;100.00
21902;BME280;11115;46.038;14.612;2023-04-15T02:54:23;97256.47;;;6.44;100.00
21902;BME280;11115;46.038;14.612;2023-04-15T02:57:00;97282.28;;;6.57;100.00
21902;BME280;11115;46.038;14.612;2023-04-15T02:59:36;97283.69;;;6.54;100.00
21902;BME280;11115;46.038;14.612;2023-04-15T03:02:09;97284.22;;;6.56;100.00
21902;BME280;11115;46.038;14.612;2023-04-15T03:04:54;97280.13;;;6.54;100.00
21902;BME280;11115;46.038;14.612;2023-04-15T03:07:26;97272.09;;;6.57;100.00
21902;BME280;11115;46.038;14.612;2023-04-15T03:10:02;97272.09;;;6.57;100.00
21902;BME280;11115;46.038;14.612;2023-04-15T03:12:34;97280.94;;;6.54;100.00
21902;BME280;11115;46.038;14.612;2023-04-15T03:15:07;97289.81;;;6.51;100.00
21902;BME280;11115;46.038;14.612;2023-04-15T03:17:41;97275.97;;;6.56;100.00
21902;BME280;11115;46.038;14.612;2023-04-15T03:20:14;97270.88;;;6.50;100.00
21902;BME280;11115;46.038;14.612;2023-04-15T03:22:52;97271.53;;;6.47;100.00
21902;BME280;11115;46.038;14.612;2023-04-15T03:25:35;97259.03;;;6.41;100.00
21902;BME280;11115;46.038;14.612;2023-04-15T03:28:06;97273.97;;;6.48;100.00
21902;BME280;11115;46.038;14.612;2023-04-15T03:30:44;97272.47;;;6.42;100.00
21902;BME280;11115;46.038;14.612;2023-04-15T03:33:25;97270.34;;;6.39;100.00
21902;BME280;11115;46.038;14.612;2023-04-15T03:35:56;97269.91;;;6.46;100.00
21902;BME280;11115;46.038;14.612;2023-04-15T03:38:23;97278.59;;;6.39;100.00
21902;BME280;11115;46.038;14.612;2023-04-15T03:41:01;97280.19;;;6.40;100.00
21902;BME280;11115;46.038;14.612;2023-04-15T03:43:30;97282.69;;;6.28;100.00
21902;BME280;11115;46.038;14.612;2023-04-15T03:46:03;97274.13;;;6.29;100.00
21902;BME280;11115;46.038;14.612;2023-04-15T03:48:32;97278.19;;;6.32;100.00
21902;BME280;11115;46.038;14.612;2023-04-15T03:51:02;97277.50;;;6.26;100.00
21902;BME280;11115;46.038;14.612;2023-04-15T03:53:33;97287.78;;;6.21;100.00
21902;BME280;11115;46.038;14.612;2023-04-15T03:56:10;97273.44;;;6.24;100.00
21902;BME280;11115;46.038;14.612;2023-04-15T03:58:56;97277.63;;;6.21;100.00
21902;BME280;11115;46.038;14.612;2023-04-15T04:01:32;97279.16;;;6.14;100.00
21902;BME280;11115;46.038;14.612;2023-04-15T04:04:16;97282.81;;;6.23;100.00
21902;BME280;11115;46.038;14.612;2023-04-15T04:06:45;97262.91;;;6.17;100.00
21902;BME280;11115;46.038;14.612;2023-04-15T04:09:16;97269.47;;;6.16;100.00
21902;BME280;11115;46.038;14.612;2023-04-15T04:11:49;97283.00;;;6.26;100.00
21902;BME280;11115;46.038;14.612;2023-04-15T04:14:23;97274.13;;;6.29;100.00
21902;BME280;11115;46.038;14.612;2023-04-15T04:17:00;97276.25;;;6.32;100.00
21902;BME280;11115;46.038;14.612;2023-04-15T04:19:31;97281.44;;;6.34;100.00
21902;BME280;11115;46.038;14.612;2023-04-15T04:22:04;97251.91;;;6.17;100.00
21902;BME280;11115;46.038;14.612;2023-04-15T04:24:48;97285.44;;;6.28;100.00
21902;BME280;11115;46.038;14.612;2023-04-15T04:27:19;97286.28;;;6.15;100.00
21902;BME280;11115;46.038;14.612;2023-04-15T04:29:50;97294.00;;;6.13;100.00
21902;BME280;11115;46.038;14.612;2023-04-15T04:32:33;97290.03;;;6.19;100.00
21902;BME280;11115;46.038;14.612;2023-04-15T04:35:04;97289.50;;;6.17;100.00
21902;BME280;11115;46.038;14.612;2023-04-15T04:37:35;97281.81;;;6.19;100.00
21902;BME280;11115;46.038;14.612;2023-04-15T04:40:07;97302.03;;;6.23;100.00
21902;BME280;11115;46.038;14.612;2023-04-15T04:42:38;97305.28;;;6.25;100.00
21902;BME280;11115;46.038;14.612;2023-04-15T04:45:09;97304.34;;;6.29;100.00
21902;BME280;11115;46.038;14.612;2023-04-15T04:47:37;97310.41;;;6.40;100.00
21902;BME280;11115;46.038;14.612;2023-04-15T04:50:10;97318.47;;;6.36;100.00
21902;BME280;11115;46.038;14.612;2023-04-15T04:52:44;97310.53;;;6.35;100.00
21902;BME280;11115;46.038;14.612;2023-04-15T04:55:14;97317.41;;;6.46;100.00
21902;BME280;11115;46.038;14.612;2023-04-15T04:57:54;97319.03;;;6.47;100.00
21902;BME280;11115;46.038;14.612;2023-04-15T05:00:28;97318.41;;;6.50;100.00
21902;BME280;11115;46.038;14.612;2023-04-15T05:03:05;97321.66;;;6.52;100.00
21902;BME280;11115;46.038;14.612;2023-04-15T05:05:46;97322.78;;;6.51;100.00
21902;BME280;11115;46.038;14.612;2023-04-15T05:08:17;97313.03;;;6.45;100.00
21902;BME280;11115;46.038;14.612;2023-04-15T05:10:48;97310.47;;;6.49;100.00
21902;BME280;11115;46.038;14.612;2023-04-15T05:13:19;97316.97;;;6.53;100.00
21902;BME280;11115;46.038;14.612;2023-04-15T05:15:59;97322.75;;;6.65;100.00
21902;BME280;11115;46.038;14.612;2023-04-15T05:18:29;97328.41;;;6.68;100.00
21902;BME280;11115;46.038;14.612;2023-04-15T05:21:05;97321.16;;;6.73;100.00
21902;BME280;11115;46.038;14.612;2023-04-15T05:23:38;97322.50;;;6.75;100.00
21902;BME280;11115;46.038;14.612;2023-04-15T05:26:07;97322.06;;;6.82;100.00
21902;BME280;11115;46.038;14.612;2023-04-15T05:28:37;97318.31;;;6.78;100.00
21902;BME280;11115;46.038;14.612;2023-04-15T05:31:08;97319.63;;;6.80;100.00
21902;BME280;11115;46.038;14.612;2023-04-15T05:33:39;97323.53;;;6.88;100.00
21902;BME280;11115;46.038;14.612;2023-04-15T05:36:07;97323.78;;;7.00;100.00
21902;BME280;11115;46.038;14.612;2023-04-15T05:38:37;97328.03;;;7.06;100.00
21902;BME280;11115;46.038;14.612;2023-04-15T05:41:06;97329.66;;;7.07;100.00
21902;BME280;11115;46.038;14.612;2023-04-15T05:43:51;97336.63;;;7.13;100.00
21902;BME280;11115;46.038;14.612;2023-04-15T05:46:24;97325.63;;;7.36;100.00
21902;BME280;11115;46.038;14.612;2023-04-15T05:49:06;97324.53;;;7.45;100.00
21902;BME280;11115;46.038;14.612;2023-04-15T05:51:37;97330.34;;;7.44;100.00
21902;BME280;11115;46.038;14.612;2023-04-15T05:54:13;97330.00;;;7.37;100.00
21902;BME280;11115;46.038;14.612;2023-04-15T05:56:50;97331.63;;;7.38;100.00
21902;BME280;11115;46.038;14.612;2023-04-15T05:59:20;97324.19;;;7.47;100.00
21902;BME280;11115;46.038;14.612;2023-04-15T06:01:52;97328.47;;;7.61;100.00
21902;BME280;11115;46.038;14.612;2023-04-15T06:04:38;97327.53;;;7.66;100.00
21902;BME280;11115;46.038;14.612;2023-04-15T06:07:11;97336.00;;;7.87;100.00
21902;BME280;11115;46.038;14.612;2023-04-15T06:09:41;97331.03;;;7.98;100.00
21902;BME280;11115;46.038;14.612;2023-04-15T06:12:11;97332.66;;;7.99;100.00
21902;BME280;11115;46.038;14.612;2023-04-15T06:14:43;97343.06;;;8.10;100.00
21902;BME280;11115;46.038;14.612;2023-04-15T06:17:14;97340.00;;;8.12;100.00
21902;BME280;11115;46.038;14.612;2023-04-15T06:19:44;97325.03;;;7.96;100.00
21902;BME280;11115;46.038;14.612;2023-04-15T06:22:28;97337.25;;;8.12;100.00
21902;BME280;11115;46.038;14.612;2023-04-15T06:24:58;97337.75;;;8.31;100.00
21902;BME280;11115;46.038;14.612;2023-04-15T06:27:38;97331.94;;;8.33;100.00
21902;BME280;11115;46.038;14.612;2023-04-15T06:30:12;97311.16;;;8.27;100.00
21902;BME280;11115;46.038;14.612;2023-04-15T06:32:56;97330.66;;;8.39;100.00
21902;BME280;11115;46.038;14.612;2023-04-15T06:35:28;97341.06;;;8.50;100.00
21902;BME280;11115;46.038;14.612;2023-04-15T06:37:58;97342.16;;;8.67;100.00
21902;BME280;11115;46.038;14.612;2023-04-15T06:40:37;97337.66;;;8.71;100.00
21902;BME280;11115;46.038;14.612;2023-04-15T06:43:08;97337.19;;;8.69;100.00
21902;BME280;11115;46.038;14.612;2023-04-15T06:45:36;97343.66;;;8.90;100.00
21902;BME280;11115;46.038;14.612;2023-04-15T06:48:07;97335.84;;;9.01;100.00
21902;BME280;11115;46.038;14.612;2023-04-15T06:50:36;97318.19;;;8.93;100.00
21902;BME280;11115;46.038;14.612;2023-04-15T06:53:20;97328.53;;;9.05;100.00
21902;BME280;11115;46.038;14.612;2023-04-15T06:55:50;97331.09;;;9.19;100.00
21902;BME280;11115;46.038;14.612;2023-04-15T06:58:24;97321.69;;;9.20;100.00
21902;BME280;11115;46.038;14.612;2023-04-15T07:00:58;97330.28;;;9.27;100.00
21902;BME280;11115;46.038;14.612;2023-04-15T07:03:28;97331.72;;;9.33;100.00
21902;BME280;11115;46.038;14.612;2023-04-15T07:06:06;97331.72;;;9.33;100.00
21902;BME280;11115;46.038;14.612;2023-04-15T07:08:36;97325.69;;;9.39;100.00
21902;BME280;11115;46.038;14.612;2023-04-15T07:11:10;97321.44;;;9.51;100.00
21902;BME280;11115;46.038;14.612;2023-04-15T07:13:41;97317.22;;;9.44;100.00
21902;BME280;11115;46.038;14.612;2023-04-15T07:16:17;97323.34;;;9.59;100.00
21902;BME280;11115;46.038;14.612;2023-04-15T07:18:50;97312.34;;;9.50;100.00
21902;BME280;11115;46.038;14.612;2023-04-15T07:21:32;97324.91;;;9.77;100.00
21902;BME280;11115;46.038;14.612;2023-04-15T07:24:08;97335.28;;;9.80;100.00
21902;BME280;11115;46.038;14.612;2023-04-15T07:26:36;97334.78;;;9.87;100.00
21902;BME280;11115;46.038;14.612;2023-04-15T07:29:15;97336.66;;;10.03;100.00
21902;BME280;11115;46.038;14.612;2023-04-15T07:31:45;97344.28;;;10.07;100.00
21902;BME280;11115;46.038;14.612;2023-04-15T07:34:27;97341.88;;;9.96;100.00
21902;BME280;11115;46.038;14.612;2023-04-15T07:36:57;97340.66;;;10.23;100.00
21902;BME280;11115;46.038;14.612;2023-04-15T07:39:30;97342.72;;;10.26;100.00
21902;BME280;11115;46.038;14.612;2023-04-15T07:42:02;97329.25;;;10.25;100.00
21902;BME280;11115;46.038;14.612;2023-04-15T07:44:39;97320.91;;;10.54;100.00
21902;BME280;11115;46.038;14.612;2023-04-15T07:47:18;97342.41;;;10.90;100.00
21902;BME280;11115;46.038;14.612;2023-04-15T07:50:01;97341.53;;;10.99;100.00
21902;BME280;11115;46.038;14.612;2023-04-15T07:52:33;97340.06;;;10.80;100.00
21902;BME280;11115;46.038;14.612;2023-04-15T07:55:10;97346.69;;;10.67;100.00
21902;BME280;11115;46.038;14.612;2023-04-15T07:57:46;97353.34;;;10.87;100.00
21902;BME280;11115;46.038;14.612;2023-04-15T08:00:24;97349.78;;;10.86;100.00
21902;BME280;11115;46.038;14.612;2023-04-15T08:02:58;97353.91;;;11.01;100.00
21902;BME280;11115;46.038;14.612;2023-04-15T08:05:31;97349.34;;;10.97;100.00
21902;BME280;11115;46.038;14.612;2023-04-15T08:08:05;97346.13;;;10.74;100.00
21902;BME280;11115;46.038;14.612;2023-04-15T08:10:39;97350.84;;;10.73;100.00
21902;BME280;11115;46.038;14.612;2023-04-15T08:13:25;97349.09;;;10.89;100.00
21902;BME280;11115;46.038;14.612;2023-04-15T08:16:25;97351.03;;;11.10;100.00
21902;BME280;11115;46.038;14.612;2023-04-15T08:18:59;97358.59;;;11.21;100.00
21902;BME280;11115;46.038;14.612;2023-04-15T08:21:32;97357.16;;;11.15;100.00
21902;BME280;11115;46.038;14.612;2023-04-15T08:24:08;97359.75;;;11.20;100.00
21902;BME280;11115;46.038;14.612;2023-04-15T08:26:43;97363.66;;;11.19;100.00
21902;BME280;11115;46.038;14.612;2023-04-15T08:29:14;97361.22;;;11.18;100.00
21902;BME280;11115;46.038;14.612;2023-04-15T08:31:44;97365.50;;;10.94;100.00
21902;BME280;11115;46.038;14.612;2023-04-15T08:34:15;97360.25;;;11.02;100.00
21902;BME280;11115;46.038;14.612;2023-04-15T08:36:50;97366.28;;;11.16;100.00
21902;BME280;11115;46.038;14.612;2023-04-15T08:39:28;97360.84;;;11.40;100.00
21902;BME280;11115;46.038;14.612;2023-04-15T08:42:09;97370.50;;;11.34;100.00
21902;BME280;11115;46.038;14.612;2023-04-15T08:44:42;97370.59;;;11.25;100.00
21902;BME280;11115;46.038;14.612;2023-04-15T08:47:14;97367.63;;;11.10;100.00
21902;BME280;11115;46.038;14.612;2023-04-15T08:49:44;97372.00;;;11.32;100.00
21902;BME280;11115;46.038;14.612;2023-04-15T08:52:22;97368.56;;;11.14;100.00
21902;BME280;11115;46.038;14.612;2023-04-15T08:54:57;97356.03;;;10.95;100.00
21902;BME280;11115;46.038;14.612;2023-04-15T08:57:28;97375.88;;;10.98;100.00
21902;BME280;11115;46.038;14.612;2023-04-15T09:00:02;97380.00;;;11.12;100.00
21902;BME280;11115;46.038;14.612;2023-04-15T09:02:41;97380.66;;;11.09;100.00
21902;BME280;11115;46.038;14.612;2023-04-15T09:05:10;97379.31;;;11.15;100.00
21902;BME280;11115;46.038;14.612;2023-04-15T09:07:42;97374.06;;;11.02;100.00
21902;BME280;11115;46.038;14.612;2023-04-15T09:10:13;97392.28;;;11.23;100.00
21902;BME280;11115;46.038;14.612;2023-04-15T09:12:49;97388.16;;;11.09;100.00
21902;BME280;11115;46.038;14.612;2023-04-15T09:15:17;97395.41;;;11.01;100.00
21902;BME280;11115;46.038;14.612;2023-04-15T09:17:47;97384.72;;;11.12;100.00
21902;BME280;11115;46.038;14.612;2023-04-15T09:20:42;97398.16;;;11.22;100.00
21902;BME280;11115;46.038;14.612;2023-04-15T09:23:15;97393.22;;;11.07;100.00
21902;BME280;11115;46.038;14.612;2023-04-15T09:25:47;97400.13;;;11.21;100.00
21902;BME280;11115;46.038;14.612;2023-04-15T09:28:23;97387.44;;;11.33;100.00
21902;BME280;11115;46.038;14.612;2023-04-15T09:30:57;97392.75;;;11.25;100.00
21902;BME280;11115;46.038;14.612;2023-04-15T09:33:29;97396.28;;;11.47;100.00
21902;BME280;11115;46.038;14.612;2023-04-15T09:36:03;97392.47;;;11.51;100.00
21902;BME280;11115;46.038;14.612;2023-04-15T09:38:59;97404.81;;;11.42;100.00
21902;BME280;11115;46.038;14.612;2023-04-15T09:41:34;97395.75;;;11.66;100.00
21902;BME280;11115;46.038;14.612;2023-04-15T09:44:04;97401.25;;;11.53;100.00
21902;BME280;11115;46.038;14.612;2023-04-15T09:46:45;97401.00;;;11.46;100.00
21902;BME280;11115;46.038;14.612;2023-04-15T09:49:20;97405.78;;;11.25;100.00
21902;BME280;11115;46.038;14.612;2023-04-15T09:52:06;97401.28;;;11.33;100.00
21902;BME280;11115;46.038;14.612;2023-04-15T09:54:39;97394.47;;;11.30;100.00
21902;BME280;11115;46.038;14.612;2023-04-15T09:57:11;97401.97;;;11.30;100.00
21902;BME280;11115;46.038;14.612;2023-04-15T09:59:46;97399.41;;;11.45;100.00
21902;BME280;11115;46.038;14.612;2023-04-15T10:02:20;97393.75;;;11.54;100.00
21902;BME280;11115;46.038;14.612;2023-04-15T10:04:59;97397.09;;;11.80;100.00
21902;BME280;11115;46.038;14.612;2023-04-15T10:07:39;97381.56;;;12.00;100.00
21902;BME280;11115;46.038;14.612;2023-04-15T10:10:15;97387.78;;;12.09;100.00
21902;BME280;11115;46.038;14.612;2023-04-15T10:12:54;97394.84;;;12.19;100.00
21902;BME280;11115;46.038;14.612;2023-04-15T10:15:24;97396.78;;;12.31;100.00
21902;BME280;11115;46.038;14.612;2023-04-15T10:18:09;97393.78;;;12.48;100.00
21902;BME280;11115;46.038;14.612;2023-04-15T10:20:39;97394.38;;;12.41;100.00
21902;BME280;11115;46.038;14.612;2023-04-15T10:23:29;97385.47;;;12.24;100.00
21902;BME280;11115;46.038;14.612;2023-04-15T10:26:04;97396.00;;;12.18;100.00
21902;BME280;11115;46.038;14.612;2023-04-15T10:28:35;97399.44;;;12.03;100.00
21902;BME280;11115;46.038;14.612;2023-04-15T10:31:06;97395.06;;;11.69;100.00
21902;BME280;11115;46.038;14.612;2023-04-15T10:33:39;97408.88;;;11.56;100.00
21902;BME280;11115;46.038;14.612;2023-04-15T10:36:09;97423.84;;;11.43;100.00
21902;BME280;11115;46.038;14.612;2023-04-15T10:38:43;97408.69;;;11.08;100.00
21902;BME280;11115;46.038;14.612;2023-04-15T10:41:26;97412.13;;;10.84;100.00
21902;BME280;11115;46.038;14.612;2023-04-15T10:43:59;97427.84;;;10.71;100.00
21902;BME280;11115;46.038;14.612;2023-04-15T10:46:35;97434.41;;;10.58;100.00
21902;BME280;11115;46.038;14.612;2023-04-15T10:49:17;97457.00;;;10.30;100.00
21902;BME280;11115;46.038;14.612;2023-04-15T10:52:00;97465.81;;;10.15;100.00
21902;BME280;11115;46.038;14.612;2023-04-15T10:54:31;97479.91;;;9.76;100.00
21902;BME280;11115;46.038;14.612;2023-04-15T10:57:07;97481.91;;;9.32;100.00
21902;BME280;11115;46.038;14.612;2023-04-15T11:00:13;97483.84;;;9.14;100.00
21902;BME280;11115;46.038;14.612;2023-04-15T11:02:58;97470.69;;;9.20;100.00
21902;BME280;11115;46.038;14.612;2023-04-15T11:05:52;97474.28;;;9.46;100.00
21902;BME280;11115;46.038;14.612;2023-04-15T11:08:56;97453.81;;;9.47;100.00
21902;BME280;11115;46.038;14.612;2023-04-15T11:12:07;97446.03;;;10.04;100.00
21902;BME280;11115;46.038;14.612;2023-04-15T11:14:40;97444.19;;;10.17;100.00
21902;BME280;11115;46.038;14.612;2023-04-15T11:17:09;97435.72;;;10.60;100.00
21902;BME280;11115;46.038;14.612;2023-04-15T11:19:42;97428.78;;;10.75;100.00
21902;BME280;11115;46.038;14.612;2023-04-15T11:22:15;97435.94;;;11.18;100.00
21902;BME280;11115;46.038;14.612;2023-04-15T11:24:46;97439.38;;;11.36;100.00
21902;BME280;11115;46.038;14.612;2023-04-15T11:27:22;97432.47;;;11.75;100.00
21902;BME280;11115;46.038;14.612;2023-04-15T11:29:55;97427.25;;;11.82;100.00
21902;BME280;11115;46.038;14.612;2023-04-15T11:32:24;97420.78;;;11.90;100.00
21902;BME280;11115;46.038;14.612;2023-04-15T11:34:54;97419.88;;;11.98;100.00
21902;BME280;11115;46.038;14.612;2023-04-15T11:37:30;97410.19;;;12.29;100.00
21902;BME280;11115;46.038;14.612;2023-04-15T11:40:05;97396.91;;;12.46;100.00
21902;BME280;11115;46.038;14.612;2023-04-15T11:42:40;97390.75;;;12.77;100.00
21902;BME280;11115;46.038;14.612;2023-04-15T11:45:15;97390.03;;;12.93;100.00
21902;BME280;11115;46.038;14.612;2023-04-15T11:47:45;97388.53;;;12.95;100.00
21902;BME280;11115;46.038;14.612;2023-04-15T11:50:17;97398.59;;;12.88;100.00
21902;BME280;11115;46.038;14.612;2023-04-15T11:52:57;97400.50;;;12.59;100.00
21902;BME280;11115;46.038;14.612;2023-04-15T11:55:27;97402.56;;;12.13;100.00
21902;BME280;11115;46.038;14.612;2023-04-15T11:58:09;97407.75;;;11.58;100.00
21902;BME280;11115;46.038;14.612;2023-04-15T12:00:53;97386.22;;;11.42;100.00
21902;BME280;11115;46.038;14.612;2023-04-15T12:03:53;97414.31;;;10.99;100.00
21902;BME280;11115;46.038;14.612;2023-04-15T12:06:24;97420.34;;;10.92;100.00
21902;BME280;11115;46.038;14.612;2023-04-15T12:09:10;97428.25;;;10.61;100.00
21902;BME280;11115;46.038;14.612;2023-04-15T12:11:51;97434.16;;;10.72;100.00
21902;BME280;11115;46.038;14.612;2023-04-15T12:14:26;97435.22;;;10.58;100.00
21902;BME280;11115;46.038;14.612;2023-04-15T12:17:03;97436.81;;;10.68;100.00
21902;BME280;11115;46.038;14.612;2023-04-15T12:19:54;97427.47;;;10.52;100.00
21902;BME280;11115;46.038;14.612;2023-04-15T12:22:38;97450.16;;;10.37;100.00
21902;BME280;11115;46.038;14.612;2023-04-15T12:25:17;97452.63;;;10.29;100.00
21902;BME280;11115;46.038;14.612;2023-04-15T12:28:09;97451.38;;;10.10;100.00
21902;BME280;11115;46.038;14.612;2023-04-15T12:30:48;97477.19;;;10.14;100.00
21902;BME280;11115;46.038;14.612;2023-04-15T12:33:19;97487.63;;;9.99;100.00
21902;BME280;11115;46.038;14.612;2023-04-15T12:36:02;97510.63;;;9.48;100.00
21902;BME280;11115;46.038;14.612;2023-04-15T12:38:35;97528.97;;;9.27;100.00
21902;BME280;11115;46.038;14.612;2023-04-15T12:41:07;97543.06;;;9.25;100.00
21902;BME280;11115;46.038;14.612;2023-04-15T12:43:36;97571.75;;;8.98;100.00
21902;BME280;11115;46.038;14.612;2023-04-15T12:46:10;97558.81;;;8.50;100.00
21902;BME280;11115;46.038;14.612;2023-04-15T12:48:46;97596.88;;;7.95;100.00
21902;BME280;11115;46.038;14.612;2023-04-15T12:51:22;97614.00;;;7.92;100.00
21902;BME280;11115;46.038;14.612;2023-04-15T12:53:57;97596.41;;;7.79;100.00
21902;BME280;11115;46.038;14.612;2023-04-15T12:56:35;97615.25;;;7.86;100.00
21902;BME280;11115;46.038;14.612;2023-04-15T12:59:20;97618.59;;;7.60;100.00
21902;BME280;11115;46.038;14.612;2023-04-15T13:01:52;97623.00;;;7.61;100.00
21902;BME280;11115;46.038;14.612;2023-04-15T13:04:27;97618.97;;;7.68;100.00
21902;BME280;11115;46.038;14.612;2023-04-15T13:06:57;97618.97;;;7.68;100.00
21902;BME280;11115;46.038;14.612;2023-04-15T13:09:30;97611.75;;;7.72;100.00
21902;BME280;11115;46.038;14.612;2023-04-15T13:12:15;97605.13;;;7.73;100.00
21902;BME280;11115;46.038;14.612;2023-04-15T13:14:49;97602.84;;;7.52;100.00
21902;BME280;11115;46.038;14.612;2023-04-15T13:17:21;97596.97;;;7.68;100.00
21902;BME280;11115;46.038;14.612;2023-04-15T13:19:55;97607.06;;;7.72;100.00
21902;BME280;11115;46.038;14.612;2023-04-15T13:22:27;97602.28;;;7.64;100.00
21902;BME280;11115;46.038;14.612;2023-04-15T13:25:06;97601.09;;;7.56;100.00
21902;BME280;11115;46.038;14.612;2023-04-15T13:27:37;97602.25;;;7.42;100.00